PRIVATE WETTERSTATION BILLIGHEIM-ALLFELD                       ZURCK
Wetterdaten: Mittwoch, 20.04.2016
Datum Zeit Temp. A. Temp. A. min Temp. A. max Feuchte A. Luftdruck Regen Wind Richtung Richtung Sonnenschein ET Solar Taupunkt Windchill Windben Empfang
20.04.2016 00:00 7,1 C 7,1 C 7,3 C 78 % 1026,9 hPa 0,0 l/m 0,0 km/h (0 Bft) N 0 0 min 0,025 mm 0 W/m 3,5 C 7,1 C 0,0 km/h (0 Bft) 100 %
20.04.2016 00:10 6,8 C 6,8 C 7,1 C 79 % 1026,9 hPa 0,0 l/m 0,0 km/h (0 Bft) N 0 0 min 0,000 mm 0 W/m 3,4 C 6,8 C 0,0 km/h (0 Bft) 100 %
20.04.2016 00:20 6,5 C 6,5 C 6,8 C 80 % 1027,0 hPa 0,0 l/m 0,0 km/h (0 Bft) N 0 0 min 0,000 mm 0 W/m 3,3 C 6,5 C 0,0 km/h (0 Bft) 100 %
20.04.2016 00:30 6,3 C 6,3 C 6,5 C 80 % 1027,0 hPa 0,0 l/m 0,0 km/h (0 Bft) N 0 0 min 0,000 mm 0 W/m 3,1 C 6,3 C 0,0 km/h (0 Bft) 100 %
20.04.2016 00:40 6,1 C 6,1 C 6,3 C 81 % 1027,0 hPa 0,0 l/m 0,0 km/h (0 Bft) N 0 0 min 0,000 mm 0 W/m 3,1 C 6,1 C 0,0 km/h (0 Bft) 100 %
20.04.2016 00:50 6,0 C 5,9 C 6,1 C 82 % 1026,9 hPa 0,0 l/m 0,0 km/h (0 Bft) N 0 0 min 0,000 mm 0 W/m 3,2 C 6,0 C 0,0 km/h (0 Bft) 100 %
20.04.2016 01:00 5,9 C 5,9 C 6,0 C 83 % 1026,9 hPa 0,0 l/m 0,0 km/h (0 Bft) N 0 0 min 0,000 mm 0 W/m 3,2 C 5,9 C 0,0 km/h (0 Bft) 100 %
20.04.2016 01:10 5,7 C 5,7 C 5,9 C 82 % 1026,9 hPa 0,0 l/m 0,0 km/h (0 Bft) N 0 0 min 0,000 mm 0 W/m 2,9 C 5,7 C 0,0 km/h (0 Bft) 100 %
20.04.2016 01:20 5,3 C 5,3 C 5,7 C 83 % 1026,8 hPa 0,0 l/m 0,0 km/h (0 Bft) N 0 0 min 0,000 mm 0 W/m 2,7 C 5,3 C 0,0 km/h (0 Bft) 100 %
20.04.2016 01:30 4,9 C 4,9 C 5,3 C 85 % 1026,9 hPa 0,0 l/m 0,0 km/h (0 Bft) N 0 0 min 0,000 mm 0 W/m 2,6 C 4,9 C 0,0 km/h (0 Bft) 100 %
20.04.2016 01:40 4,7 C 4,7 C 4,9 C 86 % 1027,0 hPa 0,0 l/m 0,0 km/h (0 Bft) N 0 0 min 0,000 mm 0 W/m 2,6 C 4,7 C 0,0 km/h (0 Bft) 100 %
20.04.2016 01:50 4,4 C 4,4 C 4,7 C 86 % 1026,9 hPa 0,0 l/m 0,0 km/h (0 Bft) N 0 0 min 0,000 mm 0 W/m 2,3 C 4,4 C 0,0 km/h (0 Bft) 100 %
20.04.2016 02:00 4,1 C 4,1 C 4,4 C 87 % 1027,0 hPa 0,0 l/m 0,0 km/h (0 Bft) N 0 0 min 0,000 mm 0 W/m 2,1 C 4,1 C 0,0 km/h (0 Bft) 100 %
20.04.2016 02:10 3,9 C 3,9 C 4,1 C 88 % 1027,0 hPa 0,0 l/m 0,0 km/h (0 Bft) N 0 0 min 0,000 mm 0 W/m 2,1 C 3,9 C 0,0 km/h (0 Bft) 100 %
20.04.2016 02:20 3,7 C 3,7 C 3,9 C 88 % 1026,9 hPa 0,0 l/m 0,0 km/h (0 Bft) N 0 0 min 0,000 mm 0 W/m 1,9 C 3,7 C 0,0 km/h (0 Bft) 100 %
20.04.2016 02:30 3,5 C 3,5 C 3,7 C 89 % 1027,0 hPa 0,0 l/m 0,0 km/h (0 Bft) N 0 0 min 0,000 mm 0 W/m 1,9 C 3,5 C 0,0 km/h (0 Bft) 100 %
20.04.2016 02:40 3,3 C 3,3 C 3,5 C 89 % 1026,9 hPa 0,0 l/m 0,0 km/h (0 Bft) N 0 0 min 0,000 mm 0 W/m 1,7 C 3,3 C 0,0 km/h (0 Bft) 91 %
20.04.2016 02:50 3,2 C 3,2 C 3,3 C 89 % 1027,0 hPa 0,0 l/m 0,0 km/h (0 Bft) N 0 0 min 0,000 mm 0 W/m 1,6 C 3,2 C 0,0 km/h (0 Bft) 100 %
20.04.2016 03:00 3,1 C 3,1 C 3,2 C 90 % 1026,9 hPa 0,0 l/m 0,0 km/h (0 Bft) N 0 0 min 0,000 mm 0 W/m 1,6 C 3,1 C 0,0 km/h (0 Bft) 100 %
20.04.2016 03:10 3,1 C 3,1 C 3,1 C 90 % 1026,9 hPa 0,0 l/m 0,0 km/h (0 Bft) N 0 0 min 0,000 mm 0 W/m 1,6 C 3,1 C 0,0 km/h (0 Bft) 100 %
20.04.2016 03:20 3,0 C 3,0 C 3,1 C 90 % 1026,9 hPa 0,0 l/m 0,0 km/h (0 Bft) N 0 0 min 0,000 mm 0 W/m 1,5 C 3,0 C 0,0 km/h (0 Bft) 100 %
20.04.2016 03:30 2,8 C 2,8 C 3,0 C 89 % 1027,0 hPa 0,0 l/m 0,0 km/h (0 Bft) N 0 0 min 0,000 mm 0 W/m 1,2 C 2,8 C 0,0 km/h (0 Bft) 100 %
20.04.2016 03:40 2,6 C 2,6 C 2,8 C 90 % 1027,1 hPa 0,0 l/m 0,0 km/h (0 Bft) N 0 0 min 0,000 mm 0 W/m 1,1 C 2,6 C 0,0 km/h (0 Bft) 100 %
20.04.2016 03:50 2,3 C 2,3 C 2,6 C 90 % 1027,1 hPa 0,0 l/m 0,0 km/h (0 Bft) N 0 0 min 0,000 mm 0 W/m 0,8 C 2,3 C 0,0 km/h (0 Bft) 99 %
20.04.2016 04:00 2,1 C 2,1 C 2,3 C 90 % 1027,1 hPa 0,0 l/m 0,0 km/h (0 Bft) N 0 0 min 0,000 mm 0 W/m 0,6 C 2,1 C 0,0 km/h (0 Bft) 100 %
20.04.2016 04:10 2,0 C 2,0 C 2,1 C 90 % 1027,2 hPa 0,0 l/m 0,0 km/h (0 Bft) N 0 0 min 0,000 mm 0 W/m 0,5 C 2,0 C 0,0 km/h (0 Bft) 91 %
20.04.2016 04:20 1,8 C 1,8 C 2,0 C 90 % 1027,3 hPa 0,0 l/m 0,0 km/h (0 Bft) N 0 0 min 0,000 mm 0 W/m 0,3 C 1,8 C 0,0 km/h (0 Bft) 100 %
20.04.2016 04:30 1,7 C 1,7 C 1,8 C 90 % 1027,3 hPa 0,0 l/m 0,0 km/h (0 Bft) N 0 0 min 0,000 mm 0 W/m 0,2 C 1,7 C 0,0 km/h (0 Bft) 100 %
20.04.2016 04:40 1,8 C 1,7 C 1,8 C 91 % 1027,3 hPa 0,0 l/m 0,0 km/h (0 Bft) N 0 0 min 0,000 mm 0 W/m 0,5 C 1,8 C 0,0 km/h (0 Bft) 100 %
20.04.2016 04:50 2,0 C 1,8 C 2,0 C 91 % 1027,4 hPa 0,0 l/m 0,0 km/h (0 Bft) N 0 0 min 0,000 mm 0 W/m 0,7 C 2,0 C 0,0 km/h (0 Bft) 100 %
20.04.2016 05:00 2,0 C 2,0 C 2,0 C 91 % 1027,3 hPa 0,0 l/m 0,0 km/h (0 Bft) N 0 0 min 0,000 mm 0 W/m 0,7 C 2,0 C 0,0 km/h (0 Bft) 100 %
20.04.2016 05:10 1,9 C 1,9 C 2,0 C 91 % 1027,3 hPa 0,0 l/m 0,0 km/h (0 Bft) N 0 0 min 0,000 mm 0 W/m 0,6 C 1,9 C 0,0 km/h (0 Bft) 100 %
20.04.2016 05:20 1,7 C 1,7 C 1,9 C 90 % 1027,5 hPa 0,0 l/m 0,0 km/h (0 Bft) N 0 0 min 0,000 mm 0 W/m 0,2 C 1,7 C 0,0 km/h (0 Bft) 100 %
20.04.2016 05:30 1,6 C 1,6 C 1,7 C 90 % 1027,6 hPa 0,0 l/m 0,0 km/h (0 Bft) N 0 0 min 0,000 mm 0 W/m 0,1 C 1,6 C 0,0 km/h (0 Bft) 100 %
20.04.2016 05:40 1,4 C 1,4 C 1,6 C 91 % 1027,6 hPa 0,0 l/m 0,0 km/h (0 Bft) N 0 0 min 0,000 mm 0 W/m 0,1 C 1,4 C 0,0 km/h (0 Bft) 90 %
20.04.2016 05:50 1,2 C 1,2 C 1,4 C 90 % 1027,7 hPa 0,0 l/m 0,0 km/h (0 Bft) N 0 0 min 0,000 mm 0 W/m -0,3 C 1,2 C 0,0 km/h (0 Bft) 100 %
20.04.2016 06:00 1,1 C 1,1 C 1,2 C 91 % 1027,8 hPa 0,0 l/m 0,0 km/h (0 Bft) N-NW 337 0 min 0,000 mm 0 W/m -0,2 C 1,1 C 1,6 km/h (1 Bft) 100 %
20.04.2016 06:10 1,2 C 1,1 C 1,2 C 91 % 1027,8 hPa 0,0 l/m 0,0 km/h (0 Bft) N-NW 337 0 min 0,000 mm 0 W/m -0,1 C 1,2 C 3,2 km/h (1 Bft) 100 %
20.04.2016 06:20 1,3 C 1,2 C 1,3 C 91 % 1027,9 hPa 0,0 l/m 0,0 km/h (0 Bft) N-NW 337 0 min 0,000 mm 0 W/m -0,0 C 1,3 C 3,2 km/h (1 Bft) 100 %
20.04.2016 06:30 1,4 C 1,2 C 1,4 C 91 % 1028,0 hPa 0,0 l/m 0,0 km/h (0 Bft) N 0 0 min 0,000 mm 0 W/m 0,1 C 1,4 C 0,0 km/h (0 Bft) 100 %
20.04.2016 06:40 1,4 C 1,4 C 1,4 C 91 % 1028,1 hPa 0,0 l/m 0,0 km/h (0 Bft) N 0 0 min 0,000 mm 0 W/m 0,1 C 1,4 C 0,0 km/h (0 Bft) 100 %
20.04.2016 06:50 1,4 C 1,4 C 1,4 C 91 % 1028,0 hPa 0,0 l/m 0,0 km/h (0 Bft) N 0 0 min 0,000 mm 0 W/m 0,1 C 1,4 C 0,0 km/h (0 Bft) 100 %
20.04.2016 07:00 1,4 C 1,4 C 1,4 C 91 % 1028,2 hPa 0,0 l/m 0,0 km/h (0 Bft) N 0 0 min 0,000 mm 0 W/m 0,1 C 1,4 C 0,0 km/h (0 Bft) 90 %
20.04.2016 07:10 1,4 C 1,4 C 1,4 C 91 % 1028,3 hPa 0,0 l/m 0,0 km/h (0 Bft) N-NW 337 0 min 0,000 mm 0 W/m 0,1 C 1,4 C 1,6 km/h (1 Bft) 100 %
20.04.2016 07:20 1,4 C 1,4 C 1,4 C 91 % 1028,4 hPa 0,0 l/m 0,0 km/h (0 Bft) N 0 0 min 0,000 mm 7 W/m 0,1 C 1,4 C 0,0 km/h (0 Bft) 100 %
20.04.2016 07:30 1,4 C 1,4 C 1,4 C 91 % 1028,4 hPa 0,0 l/m 0,0 km/h (0 Bft) N 0 0 min 0,000 mm 18 W/m 0,1 C 1,4 C 0,0 km/h (0 Bft) 100 %
20.04.2016 07:40 1,4 C 1,4 C 1,4 C 91 % 1028,4 hPa 0,0 l/m 0,0 km/h (0 Bft) N 0 0 min 0,000 mm 19 W/m 0,1 C 1,4 C 0,0 km/h (0 Bft) 100 %
20.04.2016 07:50 1,7 C 1,4 C 1,7 C 91 % 1028,5 hPa 0,0 l/m 0,0 km/h (0 Bft) N 0 0 min 0,000 mm 26 W/m 0,4 C 1,7 C 0,0 km/h (0 Bft) 100 %
20.04.2016 08:00 2,1 C 1,7 C 2,1 C 91 % 1028,7 hPa 0,0 l/m 0,0 km/h (0 Bft) N 0 0 min 0,000 mm 26 W/m 0,8 C 2,1 C 0,0 km/h (0 Bft) 100 %
20.04.2016 08:10 2,6 C 2,1 C 2,6 C 91 % 1028,8 hPa 0,0 l/m 0,0 km/h (0 Bft) N 0 0 min 0,000 mm 56 W/m 1,3 C 2,6 C 0,0 km/h (0 Bft) 100 %
20.04.2016 08:20 3,3 C 2,6 C 3,3 C 91 % 1029,0 hPa 0,0 l/m 0,0 km/h (0 Bft) N-NW 337 0 min 0,000 mm 109 W/m 2,0 C 3,3 C 3,2 km/h (1 Bft) 100 %
20.04.2016 08:30 4,2 C 3,3 C 4,2 C 91 % 1029,0 hPa 0,0 l/m 0,0 km/h (0 Bft) N 360 10 min 0,000 mm 232 W/m 2,9 C 4,2 C 3,2 km/h (1 Bft) 100 %
20.04.2016 08:40 5,3 C 4,2 C 5,3 C 89 % 1029,1 hPa 0,0 l/m 0,0 km/h (0 Bft) N 360 10 min 0,000 mm 276 W/m 3,6 C 5,3 C 3,2 km/h (1 Bft) 100 %
20.04.2016 08:50 6,3 C 5,3 C 6,3 C 84 % 1029,2 hPa 0,0 l/m 0,0 km/h (0 Bft) N 360 10 min 0,000 mm 313 W/m 3,8 C 6,3 C 4,8 km/h (1 Bft) 100 %
20.04.2016 09:00 7,2 C 6,4 C 7,2 C 80 % 1029,3 hPa 0,0 l/m 0,0 km/h (0 Bft) N-NO 22 10 min 0,076 mm 346 W/m 4,0 C 7,2 C 3,2 km/h (1 Bft) 100 %
20.04.2016 09:10 7,9 C 7,3 C 7,9 C 75 % 1029,3 hPa 0,0 l/m 1,6 km/h (1 Bft) NO 45 10 min 0,000 mm 376 W/m 3,7 C 7,9 C 11,3 km/h (2 Bft) 100 %
20.04.2016 09:20 8,3 C 7,9 C 8,3 C 72 % 1029,4 hPa 0,0 l/m 1,6 km/h (1 Bft) NO 45 10 min 0,000 mm 404 W/m 3,6 C 8,3 C 16,1 km/h (3 Bft) 100 %
20.04.2016 09:30 8,5 C 8,3 C 8,5 C 71 % 1029,4 hPa 0,0 l/m 1,6 km/h (1 Bft) NO 45 10 min 0,000 mm 434 W/m 3,5 C 8,5 C 6,4 km/h (2 Bft) 100 %
20.04.2016 09:40 8,7 C 8,5 C 8,7 C 70 % 1029,4 hPa 0,0 l/m 1,6 km/h (1 Bft) NO 45 10 min 0,000 mm 459 W/m 3,5 C 8,7 C 8,0 km/h (2 Bft) 100 %
20.04.2016 09:50 9,0 C 8,7 C 9,0 C 70 % 1029,4 hPa 0,0 l/m 0,0 km/h (0 Bft) NO 45 10 min 0,000 mm 489 W/m 3,8 C 9,0 C 8,0 km/h (2 Bft) 100 %
20.04.2016 10:00 9,4 C 9,0 C 9,4 C 69 % 1029,3 hPa 0,0 l/m 0,0 km/h (0 Bft) NO 45 10 min 0,203 mm 513 W/m 4,0 C 9,4 C 1,6 km/h (1 Bft) 100 %
20.04.2016 10:10 9,8 C 9,4 C 9,8 C 68 % 1029,4 hPa 0,0 l/m 1,6 km/h (1 Bft) NO 45 10 min 0,000 mm 543 W/m 4,2 C 9,8 C 8,0 km/h (2 Bft) 100 %
20.04.2016 10:20 10,2 C 9,8 C 10,2 C 67 % 1029,3 hPa 0,0 l/m 0,0 km/h (0 Bft) NO 45 10 min 0,000 mm 568 W/m 4,4 C 10,2 C 4,8 km/h (1 Bft) 100 %
20.04.2016 10:30 10,4 C 10,2 C 10,4 C 64 % 1029,4 hPa 0,0 l/m 0,0 km/h (0 Bft) N-NO 22 10 min 0,000 mm 589 W/m 3,9 C 10,4 C 4,8 km/h (1 Bft) 100 %
20.04.2016 10:40 10,6 C 10,4 C 10,6 C 65 % 1029,3 hPa 0,0 l/m 0,0 km/h (0 Bft) NO 45 10 min 0,000 mm 612 W/m 4,3 C 10,6 C 4,8 km/h (1 Bft) 99 %
20.04.2016 10:50 10,8 C 10,6 C 10,8 C 64 % 1029,4 hPa 0,0 l/m 0,0 km/h (0 Bft) NO 45 10 min 0,000 mm 635 W/m 4,3 C 10,8 C 1,6 km/h (1 Bft) 100 %
20.04.2016 11:00 10,9 C 10,8 C 10,9 C 65 % 1029,4 hPa 0,0 l/m 1,6 km/h (1 Bft) N-NO 22 10 min 0,279 mm 656 W/m 4,6 C 10,9 C 14,5 km/h (3 Bft) 100 %
20.04.2016 11:10 11,4 C 11,0 C 11,4 C 62 % 1029,3 hPa 0,0 l/m 0,0 km/h (0 Bft) N-NO 22 10 min 0,000 mm 673 W/m 4,4 C 11,4 C 6,4 km/h (2 Bft) 100 %
20.04.2016 11:20 11,6 C 11,4 C 11,6 C 61 % 1029,3 hPa 0,0 l/m 0,0 km/h (0 Bft) N-NO 22 10 min 0,000 mm 689 W/m 4,3 C 11,6 C 4,8 km/h (1 Bft) 100 %
20.04.2016 11:30 11,6 C 11,6 C 11,6 C 64 % 1029,2 hPa 0,0 l/m 0,0 km/h (0 Bft) N-NO 22 10 min 0,000 mm 714 W/m 5,0 C 11,6 C 1,6 km/h (1 Bft) 100 %
20.04.2016 11:40 11,8 C 11,6 C 11,8 C 63 % 1029,1 hPa 0,0 l/m 0,0 km/h (0 Bft) N-NO 22 10 min 0,000 mm 724 W/m 5,0 C 11,8 C 6,4 km/h (2 Bft) 100 %
20.04.2016 11:50 11,9 C 11,8 C 11,9 C 62 % 1029,0 hPa 0,0 l/m 0,0 km/h (0 Bft) N-NO 22 10 min 0,000 mm 740 W/m 4,9 C 11,9 C 8,0 km/h (2 Bft) 100 %
20.04.2016 12:00 11,8 C 11,8 C 11,9 C 62 % 1028,9 hPa 0,0 l/m 0,0 km/h (0 Bft) NO 45 10 min 0,330 mm 770 W/m 4,8 C 11,8 C 6,4 km/h (2 Bft) 100 %
20.04.2016 12:10 12,0 C 11,8 C 12,0 C 62 % 1029,0 hPa 0,0 l/m 1,6 km/h (1 Bft) NO 45 10 min 0,000 mm 761 W/m 4,9 C 12,0 C 8,0 km/h (2 Bft) 100 %
20.04.2016 12:20 12,3 C 12,0 C 12,3 C 61 % 1028,9 hPa 0,0 l/m 0,0 km/h (0 Bft) NO 45 10 min 0,000 mm 777 W/m 5,0 C 12,3 C 4,8 km/h (1 Bft) 100 %
20.04.2016 12:30 12,6 C 12,3 C 12,6 C 60 % 1028,8 hPa 0,0 l/m 1,6 km/h (1 Bft) O-SO 112 10 min 0,000 mm 788 W/m 5,0 C 12,6 C 11,3 km/h (2 Bft) 100 %
20.04.2016 12:40 12,7 C 12,4 C 12,7 C 60 % 1028,7 hPa 0,0 l/m 1,6 km/h (1 Bft) O-SO 112 10 min 0,000 mm 798 W/m 5,1 C 12,7 C 11,3 km/h (2 Bft) 100 %
20.04.2016 12:50 13,1 C 12,8 C 13,1 C 57 % 1028,8 hPa 0,0 l/m 1,6 km/h (1 Bft) NO 45 10 min 0,000 mm 789 W/m 4,8 C 13,1 C 9,7 km/h (2 Bft) 100 %
20.04.2016 13:00 12,8 C 12,7 C 13,1 C 58 % 1028,6 hPa 0,0 l/m 1,6 km/h (1 Bft) O-SO 112 10 min 0,381 mm 805 W/m 4,7 C 12,8 C 8,0 km/h (2 Bft) 100 %
20.04.2016 13:10 13,4 C 12,8 C 13,4 C 59 % 1028,5 hPa 0,0 l/m 1,6 km/h (1 Bft) N-NW 337 10 min 0,000 mm 800 W/m 5,6 C 13,4 C 8,0 km/h (2 Bft) 100 %
20.04.2016 13:20 13,8 C 13,4 C 13,8 C 59 % 1028,5 hPa 0,0 l/m 0,0 km/h (0 Bft) N-NW 337 10 min 0,000 mm 807 W/m 5,9 C 13,8 C 6,4 km/h (2 Bft) 100 %
20.04.2016 13:30 14,0 C 13,8 C 14,1 C 57 % 1028,5 hPa 0,0 l/m 1,6 km/h (1 Bft) SO 135 10 min 0,000 mm 805 W/m 5,6 C 14,0 C 9,7 km/h (2 Bft) 100 %
20.04.2016 13:40 13,8 C 13,8 C 14,1 C 54 % 1028,5 hPa 0,0 l/m 1,6 km/h (1 Bft) N-NW 337 10 min 0,000 mm 810 W/m 4,7 C 13,8 C 9,7 km/h (2 Bft) 100 %
20.04.2016 13:50 14,1 C 13,8 C 14,1 C 53 % 1028,4 hPa 0,0 l/m 0,0 km/h (0 Bft) NW 315 10 min 0,000 mm 807 W/m 4,7 C 14,1 C 6,4 km/h (2 Bft) 100 %
20.04.2016 14:00 14,6 C 14,1 C 14,6 C 54 % 1028,3 hPa 0,0 l/m 1,6 km/h (1 Bft) NW 315 10 min 0,406 mm 824 W/m 5,4 C 14,6 C 9,7 km/h (2 Bft) 100 %
20.04.2016 14:10 14,9 C 14,6 C 14,9 C 54 % 1028,3 hPa 0,0 l/m 0,0 km/h (0 Bft) N-NW 337 10 min 0,000 mm 819 W/m 5,7 C 14,9 C 8,0 km/h (2 Bft) 99 %
20.04.2016 14:20 15,1 C 14,9 C 15,2 C 49 % 1028,2 hPa 0,0 l/m 1,6 km/h (1 Bft) N-NW 337 10 min 0,000 mm 802 W/m 4,5 C 15,1 C 8,0 km/h (2 Bft) 100 %
20.04.2016 14:30 15,1 C 15,1 C 15,1 C 47 % 1028,2 hPa 0,0 l/m 1,6 km/h (1 Bft) NW 315 10 min 0,000 mm 796 W/m 3,9 C 15,1 C 9,7 km/h (2 Bft) 100 %
20.04.2016 14:40 15,1 C 15,1 C 15,1 C 48 % 1028,2 hPa 0,0 l/m 1,6 km/h (1 Bft) NW 315 10 min 0,000 mm 768 W/m 4,2 C 15,1 C 9,7 km/h (2 Bft) 100 %
20.04.2016 14:50 15,2 C 15,1 C 15,2 C 49 % 1028,2 hPa 0,0 l/m 0,0 km/h (0 Bft) N 360 10 min 0,000 mm 756 W/m 4,6 C 15,2 C 1,6 km/h (1 Bft) 100 %
20.04.2016 15:00 15,1 C 15,1 C 15,2 C 48 % 1028,2 hPa 0,0 l/m 0,0 km/h (0 Bft) N-NO 22 10 min 0,406 mm 740 W/m 4,2 C 15,1 C 6,4 km/h (2 Bft) 99 %
20.04.2016 15:10 15,4 C 15,1 C 15,4 C 46 % 1028,2 hPa 0,0 l/m 0,0 km/h (0 Bft) NO 45 10 min 0,000 mm 728 W/m 3,8 C 15,4 C 4,8 km/h (1 Bft) 100 %
20.04.2016 15:20 15,1 C 15,1 C 15,4 C 51 % 1027,9 hPa 0,0 l/m 0,0 km/h (0 Bft) SO 135 10 min 0,000 mm 712 W/m 5,0 C 15,1 C 9,7 km/h (2 Bft) 100 %
20.04.2016 15:30 15,2 C 15,1 C 15,3 C 48 % 1027,9 hPa 0,0 l/m 1,6 km/h (1 Bft) NW 315 10 min 0,000 mm 687 W/m 4,3 C 15,2 C 11,3 km/h (2 Bft) 100 %
20.04.2016 15:40 15,5 C 15,2 C 15,5 C 46 % 1027,8 hPa 0,0 l/m 1,6 km/h (1 Bft) N-NW 337 0 min 0,000 mm 60 W/m 3,9 C 15,5 C 11,3 km/h (2 Bft) 100 %
20.04.2016 15:50 15,4 C 15,4 C 15,6 C 47 % 1027,7 hPa 0,0 l/m 1,6 km/h (1 Bft) NO 45 0 min 0,000 mm 33 W/m 4,1 C 15,4 C 14,5 km/h (3 Bft) 99 %
20.04.2016 16:00 15,5 C 15,4 C 15,6 C 46 % 1027,6 hPa 0,0 l/m 1,6 km/h (1 Bft) N-NW 337 0 min 0,178 mm 32 W/m 3,9 C 15,5 C 9,7 km/h (2 Bft) 100 %
20.04.2016 16:10 15,5 C 15,4 C 15,5 C 50 % 1027,5 hPa 0,0 l/m 0,0 km/h (0 Bft) NW 315 0 min 0,000 mm 33 W/m 5,1 C 15,5 C 6,4 km/h (2 Bft) 100 %
20.04.2016 16:20 15,5 C 15,4 C 15,6 C 45 % 1027,4 hPa 0,0 l/m 0,0 km/h (0 Bft) N-NO 22 0 min 0,000 mm 47 W/m 3,6 C 15,5 C 4,8 km/h (1 Bft) 99 %
20.04.2016 16:30 15,4 C 15,4 C 15,5 C 42 % 1027,3 hPa 0,0 l/m 0,0 km/h (0 Bft) N 360 0 min 0,000 mm 65 W/m 2,6 C 15,4 C 9,7 km/h (2 Bft) 100 %
20.04.2016 16:40 15,6 C 15,4 C 15,6 C 43 % 1027,3 hPa 0,0 l/m 0,0 km/h (0 Bft) N-NW 337 0 min 0,000 mm 121 W/m 3,1 C 15,6 C 6,4 km/h (2 Bft) 100 %
20.04.2016 16:50 15,5 C 15,4 C 15,6 C 42 % 1027,1 hPa 0,0 l/m 0,0 km/h (0 Bft) N 360 10 min 0,000 mm 171 W/m 2,6 C 15,5 C 4,8 km/h (1 Bft) 100 %
20.04.2016 17:00 15,5 C 15,5 C 15,5 C 43 % 1027,0 hPa 0,0 l/m 0,0 km/h (0 Bft) N-NO 22 0 min 0,051 mm 144 W/m 3,0 C 15,5 C 8,0 km/h (2 Bft) 100 %
20.04.2016 17:10 15,4 C 15,4 C 15,5 C 40 % 1027,0 hPa 0,0 l/m 0,0 km/h (0 Bft) NW 315 0 min 0,000 mm 37 W/m 1,9 C 15,4 C 4,8 km/h (1 Bft) 100 %
20.04.2016 17:20 15,4 C 15,4 C 15,4 C 42 % 1027,1 hPa 0,0 l/m 0,0 km/h (0 Bft) N 360 0 min 0,000 mm 14 W/m 2,6 C 15,4 C 3,2 km/h (1 Bft) 100 %
20.04.2016 17:30 15,5 C 15,4 C 15,5 C 43 % 1026,8 hPa 0,0 l/m 0,0 km/h (0 Bft) N-NO 22 0 min 0,000 mm 14 W/m 3,0 C 15,5 C 6,4 km/h (2 Bft) 96 %
20.04.2016 17:40 15,4 C 15,4 C 15,5 C 40 % 1026,8 hPa 0,0 l/m 0,1 km/h (0 Bft) O-NO 60 0 min 0,000 mm 11 W/m 1,9 C 15,4 C 1,6 km/h (1 Bft) 98 %
20.04.2016 17:50 15,2 C 15,2 C 15,4 C 41 % 1026,8 hPa 0,0 l/m 1,1 km/h (1 Bft) N-NO 19 0 min 0,000 mm 11 W/m 2,0 C 15,2 C 9,7 km/h (2 Bft) 100 %
20.04.2016 18:00 15,2 C 15,2 C 15,2 C 46 % 1026,7 hPa 0,0 l/m 0,3 km/h (0 Bft) NO 44 0 min 0,002 mm 11 W/m 3,7 C 15,2 C 4,8 km/h (1 Bft) 100 %
20.04.2016 18:10 15,1 C 15,1 C 15,2 C 45 % 1026,6 hPa 0,0 l/m 0,4 km/h (0 Bft) NO 40 0 min 0,000 mm 9 W/m 3,3 C 15,1 C 8,0 km/h (2 Bft) 100 %
20.04.2016 18:20 14,9 C 14,9 C 15,1 C 44 % 1026,8 hPa 0,0 l/m 0,3 km/h (0 Bft) O 100 0 min 0,000 mm 7 W/m 2,8 C 14,9 C 4,8 km/h (1 Bft) 100 %
20.04.2016 18:30 14,8 C 14,8 C 14,9 C 43 % 1026,7 hPa 0,0 l/m 0,6 km/h (0 Bft) SO 126 0 min 0,000 mm 5 W/m 2,3 C 14,8 C 9,7 km/h (2 Bft) 100 %
20.04.2016 18:40 14,7 C 14,7 C 14,8 C 46 % 1026,4 hPa 0,0 l/m 0,3 km/h (0 Bft) NO 55 0 min 0,000 mm 5 W/m 3,2 C 14,7 C 9,7 km/h (2 Bft) 100 %
20.04.2016 18:50 14,6 C 14,6 C 14,7 C 45 % 1026,3 hPa 0,0 l/m 0,0 km/h (0 Bft) N-NO 32 0 min 0,000 mm 0 W/m 2,8 C 14,6 C 1,6 km/h (1 Bft) 100 %
20.04.2016 19:00 14,3 C 14,3 C 14,6 C 42 % 1026,2 hPa 0,0 l/m 0,1 km/h (0 Bft) O 97 0 min 0,000 mm 0 W/m 1,6 C 14,3 C 3,2 km/h (1 Bft) 100 %
20.04.2016 19:10 14,1 C 14,1 C 14,3 C 44 % 1026,2 hPa 0,0 l/m 0,4 km/h (0 Bft) O-NO 58 0 min 0,025 mm 0 W/m 2,0 C 14,1 C 9,7 km/h (2 Bft) 100 %
20.04.2016 19:20 13,9 C 13,9 C 14,1 C 43 % 1026,1 hPa 0,0 l/m 0,1 km/h (0 Bft) O 81 0 min 0,000 mm 0 W/m 1,5 C 13,9 C 8,0 km/h (2 Bft) 100 %
20.04.2016 19:30 13,6 C 13,6 C 13,9 C 45 % 1026,1 hPa 0,0 l/m 0,2 km/h (0 Bft) O-SO 117 0 min 0,000 mm 0 W/m 1,9 C 13,6 C 4,8 km/h (1 Bft) 100 %
20.04.2016 19:40 13,3 C 13,3 C 13,6 C 47 % 1026,1 hPa 0,0 l/m 0,1 km/h (0 Bft) N-NO 24 0 min 0,000 mm 0 W/m 2,2 C 13,3 C 3,2 km/h (1 Bft) 100 %
20.04.2016 19:50 13,1 C 13,1 C 13,3 C 41 % 1026,0 hPa 0,0 l/m 0,4 km/h (0 Bft) O-SO 112 0 min 0,000 mm 0 W/m 0,2 C 13,1 C 8,0 km/h (2 Bft) 100 %
20.04.2016 20:00 12,8 C 12,8 C 13,1 C 43 % 1026,0 hPa 0,0 l/m 0,1 km/h (0 Bft) NO 56 0 min 0,000 mm 0 W/m 0,5 C 12,8 C 3,2 km/h (1 Bft) 100 %
20.04.2016 20:10 12,5 C 12,5 C 12,8 C 44 % 1026,1 hPa 0,0 l/m 0,0 km/h (0 Bft) O 83 0 min 0,000 mm 0 W/m 0,6 C 12,5 C 1,6 km/h (1 Bft) 100 %
20.04.2016 20:20 12,2 C 12,2 C 12,5 C 43 % 1026,2 hPa 0,0 l/m 0,0 km/h (0 Bft) O 90 0 min 0,000 mm 0 W/m -0,0 C 12,2 C 0,0 km/h (0 Bft) 100 %
20.04.2016 20:30 11,8 C 11,8 C 12,2 C 44 % 1026,2 hPa 0,0 l/m 0,0 km/h (0 Bft) O 83 0 min 0,000 mm 0 W/m -0,0 C 11,8 C 0,0 km/h (0 Bft) 100 %
20.04.2016 20:40 11,3 C 11,3 C 11,8 C 44 % 1026,2 hPa 0,0 l/m 0,3 km/h (0 Bft) O 84 0 min 0,000 mm 0 W/m -0,5 C 11,3 C 4,8 km/h (1 Bft) 91 %
20.04.2016 20:50 11,1 C 11,1 C 11,3 C 45 % 1026,2 hPa 0,0 l/m 0,0 km/h (0 Bft) O-NO 58 0 min 0,000 mm 0 W/m -0,4 C 11,1 C 1,6 km/h (1 Bft) 100 %
20.04.2016 21:00 10,7 C 10,7 C 11,1 C 46 % 1026,1 hPa 0,0 l/m 0,3 km/h (0 Bft) O-NO 74 0 min 0,000 mm 0 W/m -0,4 C 10,7 C 4,8 km/h (1 Bft) 100 %
20.04.2016 21:10 10,4 C 10,4 C 10,7 C 46 % 1026,2 hPa 0,0 l/m 0,0 km/h (0 Bft) NO 45 0 min 0,000 mm 0 W/m -0,7 C 10,4 C 6,4 km/h (2 Bft) 100 %
20.04.2016 21:20 10,2 C 10,2 C 10,4 C 47 % 1026,1 hPa 0,0 l/m 0,0 km/h (0 Bft) O-NO 67 0 min 0,000 mm 0 W/m -0,6 C 10,2 C 3,2 km/h (1 Bft) 100 %
20.04.2016 21:30 10,0 C 10,0 C 10,2 C 47 % 1026,1 hPa 0,0 l/m 0,0 km/h (0 Bft) O-NO 67 0 min 0,000 mm 0 W/m -0,8 C 10,0 C 9,7 km/h (2 Bft) 96 %
20.04.2016 21:40 9,8 C 9,8 C 10,0 C 48 % 1026,1 hPa 0,0 l/m 0,0 km/h (0 Bft) N 0 0 min 0,000 mm 0 W/m -0,7 C 9,8 C 0,0 km/h (0 Bft) 88 %
20.04.2016 21:50 9,6 C 9,6 C 9,8 C 50 % 1026,2 hPa 0,0 l/m 0,0 km/h (0 Bft) NO 45 0 min 0,000 mm 0 W/m -0,3 C 9,6 C 4,8 km/h (1 Bft) 98 %
20.04.2016 22:00 9,3 C 9,3 C 9,6 C 52 % 1026,2 hPa 0,0 l/m 0,0 km/h (0 Bft) NO 45 0 min 0,025 mm 0 W/m -0,0 C 9,3 C 4,8 km/h (1 Bft) 97 %
20.04.2016 22:10 9,1 C 9,1 C 9,3 C 54 % 1026,2 hPa 0,0 l/m 0,0 km/h (0 Bft) NO 45 0 min 0,000 mm 0 W/m 0,3 C 9,1 C 11,3 km/h (2 Bft) 98 %
20.04.2016 22:20 8,8 C 8,8 C 9,1 C 55 % 1026,1 hPa 0,0 l/m 0,0 km/h (0 Bft) O-NO 67 0 min 0,000 mm 0 W/m 0,3 C 8,8 C 8,0 km/h (2 Bft) 98 %
20.04.2016 22:30 8,7 C 8,7 C 8,8 C 54 % 1026,1 hPa 0,0 l/m 1,6 km/h (1 Bft) N-NO 22 0 min 0,000 mm 0 W/m -0,1 C 8,7 C 8,0 km/h (2 Bft) 98 %
20.04.2016 22:40 8,7 C 8,6 C 8,7 C 54 % 1026,0 hPa 0,0 l/m 0,0 km/h (0 Bft) N-NO 22 0 min 0,000 mm 0 W/m -0,1 C 8,7 C 6,4 km/h (2 Bft) 98 %
20.04.2016 22:50 8,6 C 8,6 C 8,7 C 55 % 1026,0 hPa 0,0 l/m 0,0 km/h (0 Bft) NO 45 0 min 0,000 mm 0 W/m 0,1 C 8,6 C 4,8 km/h (1 Bft) 97 %
20.04.2016 23:00 8,5 C 8,5 C 8,6 C 55 % 1025,9 hPa 0,0 l/m 0,0 km/h (0 Bft) NO 45 0 min 0,025 mm 0 W/m -0,0 C 8,5 C 9,7 km/h (2 Bft) 98 %
20.04.2016 23:10 8,4 C 8,4 C 8,5 C 56 % 1025,9 hPa 0,0 l/m 0,0 km/h (0 Bft) N-NO 22 0 min 0,000 mm 0 W/m 0,1 C 8,4 C 6,4 km/h (2 Bft) 97 %
20.04.2016 23:20 8,4 C 8,4 C 8,4 C 56 % 1025,8 hPa 0,0 l/m 0,0 km/h (0 Bft) NO 45 0 min 0,000 mm 0 W/m 0,1 C 8,4 C 4,8 km/h (1 Bft) 98 %
20.04.2016 23:30 8,4 C 8,4 C 8,4 C 54 % 1025,9 hPa 0,0 l/m 0,0 km/h (0 Bft) NO 45 0 min 0,000 mm 0 W/m -0,4 C 8,4 C 6,4 km/h (2 Bft) 98 %
20.04.2016 23:40 8,5 C 8,4 C 8,5 C 54 % 1026,0 hPa 0,0 l/m 1,6 km/h (1 Bft) NO 45 0 min 0,000 mm 0 W/m -0,3 C 8,5 C 14,5 km/h (3 Bft) 97 %
20.04.2016 23:50 8,6 C 8,5 C 8,6 C 55 % 1026,1 hPa 0,0 l/m 0,0 km/h (0 Bft) NO 45 0 min 0,000 mm 0 W/m 0,1 C 8,6 C 3,2 km/h (1 Bft) 98 %
_ Min-Zeit 06:00 06:00 06:00 17:10 23:20 - 00:00 - - - - - 21:30 06:00 00:00 21:40
Minimum _ 1,1 C 1,1 C 1,2 C 40 % 1025,8 hPa - 0,0 km/h (0 Bft) - - - - - -0,8 C 1,1 C 0,0 km/h (0 Bft) 88 %
_ Max-Zeit 15:50 17:00 15:50 04:40 09:20 00:00 09:10 - - 08:30 14:00 14:00 13:20 16:40 09:20 00:00
Maximum _ 15,6 C 15,5 C 15,6 C 91 % 1029,4 hPa 0,0 l/m 1,6 km/h
NO (1 Bft)
- - 10 min 0,406 mm 824 W/m 5,9 C 15,6 C 16,1 km/h
NO (3 Bft)
100 %
Durchschnitt _ 8,9 C 8,8 C 9,0 C 66 % 1027,5 hPa #0,0 l/m 0,3 km/h (0 Bft) NO - #7:20 h #2,412 mm 424 W/m 2,2 C 8,9 C 4,4 km/h (1 Bft) 99 %
PRIVATE WETTERSTATION BILLIGHEIM-ALLFELD - www.neckar-odenwald-wetter.de - Holger Sonntag